sensor_id;sensor_type;location;lat;lon;timestamp;P1;durP1;ratioP1;P2;durP2;ratioP2
37851;SDS011;23691;52.486;4.650;2023-05-07T00:00:17;20.85;;;13.52;;
37851;SDS011;23691;52.486;4.650;2023-05-07T00:02:45;24.07;;;14.10;;
37851;SDS011;23691;52.486;4.650;2023-05-07T00:05:10;22.08;;;13.60;;
37851;SDS011;23691;52.486;4.650;2023-05-07T00:07:36;20.50;;;13.65;;
37851;SDS011;23691;52.486;4.650;2023-05-07T00:10:02;22.40;;;14.40;;
37851;SDS011;23691;52.486;4.650;2023-05-07T00:12:28;21.90;;;14.45;;
37851;SDS011;23691;52.486;4.650;2023-05-07T00:14:56;22.92;;;13.70;;
37851;SDS011;23691;52.486;4.650;2023-05-07T00:17:22;21.35;;;14.15;;
37851;SDS011;23691;52.486;4.650;2023-05-07T00:19:48;20.25;;;13.88;;
37851;SDS011;23691;52.486;4.650;2023-05-07T00:22:13;24.65;;;15.00;;
37851;SDS011;23691;52.486;4.650;2023-05-07T00:24:39;22.25;;;14.50;;
37851;SDS011;23691;52.486;4.650;2023-05-07T00:27:04;24.17;;;15.00;;
37851;SDS011;23691;52.486;4.650;2023-05-07T00:29:30;22.13;;;14.85;;
37851;SDS011;23691;52.486;4.650;2023-05-07T00:31:55;25.73;;;15.18;;
37851;SDS011;23691;52.486;4.650;2023-05-07T00:34:20;22.50;;;15.38;;
37851;SDS011;23691;52.486;4.650;2023-05-07T00:36:46;23.30;;;15.77;;
37851;SDS011;23691;52.486;4.650;2023-05-07T00:39:11;22.88;;;16.00;;
37851;SDS011;23691;52.486;4.650;2023-05-07T00:41:37;24.20;;;15.70;;
37851;SDS011;23691;52.486;4.650;2023-05-07T00:44:02;23.85;;;16.85;;
37851;SDS011;23691;52.486;4.650;2023-05-07T00:46:28;26.77;;;17.33;;
37851;SDS011;23691;52.486;4.650;2023-05-07T00:48:55;27.67;;;16.57;;
37851;SDS011;23691;52.486;4.650;2023-05-07T00:51:20;28.35;;;18.10;;
37851;SDS011;23691;52.486;4.650;2023-05-07T00:53:46;26.17;;;17.23;;
37851;SDS011;23691;52.486;4.650;2023-05-07T00:56:11;25.48;;;16.63;;
37851;SDS011;23691;52.486;4.650;2023-05-07T00:58:37;25.67;;;16.85;;
37851;SDS011;23691;52.486;4.650;2023-05-07T01:01:03;25.60;;;17.60;;
37851;SDS011;23691;52.486;4.650;2023-05-07T01:03:28;25.95;;;17.48;;
37851;SDS011;23691;52.486;4.650;2023-05-07T01:05:54;24.60;;;17.95;;
37851;SDS011;23691;52.486;4.650;2023-05-07T01:08:22;26.65;;;18.30;;
37851;SDS011;23691;52.486;4.650;2023-05-07T01:10:49;27.48;;;18.48;;
37851;SDS011;23691;52.486;4.650;2023-05-07T01:13:16;26.67;;;18.45;;
37851;SDS011;23691;52.486;4.650;2023-05-07T01:15:43;28.73;;;18.65;;
37851;SDS011;23691;52.486;4.650;2023-05-07T01:18:08;26.63;;;17.73;;
37851;SDS011;23691;52.486;4.650;2023-05-07T01:20:34;27.85;;;17.50;;
37851;SDS011;23691;52.486;4.650;2023-05-07T01:23:00;26.45;;;19.30;;
37851;SDS011;23691;52.486;4.650;2023-05-07T01:25:26;29.05;;;19.50;;
37851;SDS011;23691;52.486;4.650;2023-05-07T01:27:52;27.23;;;20.63;;
37851;SDS011;23691;52.486;4.650;2023-05-07T01:30:17;32.88;;;22.45;;
37851;SDS011;23691;52.486;4.650;2023-05-07T01:35:20;35.22;;;24.90;;
37851;SDS011;23691;52.486;4.650;2023-05-07T01:37:49;38.67;;;26.65;;
37851;SDS011;23691;52.486;4.650;2023-05-07T01:40:15;42.95;;;28.15;;
37851;SDS011;23691;52.486;4.650;2023-05-07T01:42:42;40.88;;;27.95;;
37851;SDS011;23691;52.486;4.650;2023-05-07T01:45:08;41.88;;;29.05;;
37851;SDS011;23691;52.486;4.650;2023-05-07T01:47:34;42.65;;;29.85;;
37851;SDS011;23691;52.486;4.650;2023-05-07T01:50:01;42.80;;;29.63;;
37851;SDS011;23691;52.486;4.650;2023-05-07T01:52:27;45.58;;;30.08;;
37851;SDS011;23691;52.486;4.650;2023-05-07T01:54:53;43.05;;;30.92;;
37851;SDS011;23691;52.486;4.650;2023-05-07T01:57:18;46.03;;;31.02;;
37851;SDS011;23691;52.486;4.650;2023-05-07T01:59:44;44.92;;;29.98;;
37851;SDS011;23691;52.486;4.650;2023-05-07T02:02:09;42.72;;;29.88;;
37851;SDS011;23691;52.486;4.650;2023-05-07T02:04:35;43.03;;;30.90;;
37851;SDS011;23691;52.486;4.650;2023-05-07T02:07:00;42.85;;;30.75;;
37851;SDS011;23691;52.486;4.650;2023-05-07T02:09:25;44.20;;;31.45;;
37851;SDS011;23691;52.486;4.650;2023-05-07T02:11:51;46.95;;;31.42;;
37851;SDS011;23691;52.486;4.650;2023-05-07T02:14:16;45.72;;;32.30;;
37851;SDS011;23691;52.486;4.650;2023-05-07T02:16:41;45.90;;;32.03;;
37851;SDS011;23691;52.486;4.650;2023-05-07T02:19:07;45.15;;;32.25;;
37851;SDS011;23691;52.486;4.650;2023-05-07T02:21:32;46.10;;;31.80;;
37851;SDS011;23691;52.486;4.650;2023-05-07T02:23:58;46.35;;;31.25;;
37851;SDS011;23691;52.486;4.650;2023-05-07T02:26:23;48.47;;;31.63;;
37851;SDS011;23691;52.486;4.650;2023-05-07T02:28:48;50.45;;;32.67;;
37851;SDS011;23691;52.486;4.650;2023-05-07T02:31:14;44.70;;;31.00;;
37851;SDS011;23691;52.486;4.650;2023-05-07T02:33:39;45.47;;;30.63;;
37851;SDS011;23691;52.486;4.650;2023-05-07T02:36:08;45.08;;;30.65;;
37851;SDS011;23691;52.486;4.650;2023-05-07T02:38:35;45.30;;;31.00;;
37851;SDS011;23691;52.486;4.650;2023-05-07T02:41:00;47.53;;;31.77;;
37851;SDS011;23691;52.486;4.650;2023-05-07T02:43:26;46.30;;;31.00;;
37851;SDS011;23691;52.486;4.650;2023-05-07T02:46:04;44.08;;;29.33;;
37851;SDS011;23691;52.486;4.650;2023-05-07T02:48:31;42.63;;;28.77;;
37851;SDS011;23691;52.486;4.650;2023-05-07T02:50:57;39.47;;;27.45;;
37851;SDS011;23691;52.486;4.650;2023-05-07T02:53:22;39.53;;;26.17;;
37851;SDS011;23691;52.486;4.650;2023-05-07T02:58:16;37.15;;;24.85;;
37851;SDS011;23691;52.486;4.650;2023-05-07T03:00:41;39.83;;;24.88;;
37851;SDS011;23691;52.486;4.650;2023-05-07T03:03:07;33.08;;;23.50;;
37851;SDS011;23691;52.486;4.650;2023-05-07T03:05:32;33.17;;;23.55;;
37851;SDS011;23691;52.486;4.650;2023-05-07T03:10:42;29.10;;;20.75;;
37851;SDS011;23691;52.486;4.650;2023-05-07T03:13:07;28.65;;;19.88;;
37851;SDS011;23691;52.486;4.650;2023-05-07T03:15:32;28.48;;;19.63;;
37851;SDS011;23691;52.486;4.650;2023-05-07T03:17:58;27.23;;;18.35;;
37851;SDS011;23691;52.486;4.650;2023-05-07T03:20:23;28.10;;;19.00;;
37851;SDS011;23691;52.486;4.650;2023-05-07T03:22:49;27.20;;;17.88;;
37851;SDS011;23691;52.486;4.650;2023-05-07T03:25:14;26.10;;;16.83;;
37851;SDS011;23691;52.486;4.650;2023-05-07T03:27:39;24.45;;;15.82;;
37851;SDS011;23691;52.486;4.650;2023-05-07T03:30:07;23.80;;;15.55;;
37851;SDS011;23691;52.486;4.650;2023-05-07T03:32:33;24.15;;;15.15;;
37851;SDS011;23691;52.486;4.650;2023-05-07T03:35:00;22.65;;;13.95;;
37851;SDS011;23691;52.486;4.650;2023-05-07T03:37:26;20.23;;;13.73;;
37851;SDS011;23691;52.486;4.650;2023-05-07T03:39:51;20.08;;;12.82;;
37851;SDS011;23691;52.486;4.650;2023-05-07T03:42:16;21.83;;;13.27;;
37851;SDS011;23691;52.486;4.650;2023-05-07T03:44:42;20.35;;;12.10;;
37851;SDS011;23691;52.486;4.650;2023-05-07T03:47:07;18.85;;;11.80;;
37851;SDS011;23691;52.486;4.650;2023-05-07T03:49:33;18.63;;;11.23;;
37851;SDS011;23691;52.486;4.650;2023-05-07T03:52:00;17.77;;;10.65;;
37851;SDS011;23691;52.486;4.650;2023-05-07T03:54:26;17.98;;;10.32;;
37851;SDS011;23691;52.486;4.650;2023-05-07T03:56:51;15.82;;;10.00;;
37851;SDS011;23691;52.486;4.650;2023-05-07T03:59:16;17.95;;;9.63;;
37851;SDS011;23691;52.486;4.650;2023-05-07T04:01:42;17.63;;;9.43;;
37851;SDS011;23691;52.486;4.650;2023-05-07T04:04:07;15.07;;;9.20;;
37851;SDS011;23691;52.486;4.650;2023-05-07T04:06:32;20.45;;;8.95;;
37851;SDS011;23691;52.486;4.650;2023-05-07T04:09:00;15.40;;;9.00;;
37851;SDS011;23691;52.486;4.650;2023-05-07T04:11:26;15.73;;;9.10;;
37851;SDS011;23691;52.486;4.650;2023-05-07T04:13:52;16.08;;;8.80;;
37851;SDS011;23691;52.486;4.650;2023-05-07T04:16:17;14.93;;;8.73;;
37851;SDS011;23691;52.486;4.650;2023-05-07T04:18:43;15.02;;;8.80;;
37851;SDS011;23691;52.486;4.650;2023-05-07T04:21:18;14.35;;;8.55;;
37851;SDS011;23691;52.486;4.650;2023-05-07T04:23:44;13.88;;;7.75;;
37851;SDS011;23691;52.486;4.650;2023-05-07T04:26:09;13.93;;;7.55;;
37851;SDS011;23691;52.486;4.650;2023-05-07T04:28:35;14.50;;;7.20;;
37851;SDS011;23691;52.486;4.650;2023-05-07T04:31:00;15.52;;;7.70;;
37851;SDS011;23691;52.486;4.650;2023-05-07T04:33:26;16.55;;;7.80;;
37851;SDS011;23691;52.486;4.650;2023-05-07T04:35:51;15.30;;;7.47;;
37851;SDS011;23691;52.486;4.650;2023-05-07T04:38:17;14.82;;;7.57;;
37851;SDS011;23691;52.486;4.650;2023-05-07T04:40:43;14.52;;;7.53;;
37851;SDS011;23691;52.486;4.650;2023-05-07T04:43:09;15.02;;;7.13;;
37851;SDS011;23691;52.486;4.650;2023-05-07T04:45:35;14.82;;;7.32;;
37851;SDS011;23691;52.486;4.650;2023-05-07T04:48:01;12.80;;;7.00;;
37851;SDS011;23691;52.486;4.650;2023-05-07T04:50:26;12.88;;;6.45;;
37851;SDS011;23691;52.486;4.650;2023-05-07T04:52:52;12.93;;;7.15;;
37851;SDS011;23691;52.486;4.650;2023-05-07T04:55:17;13.80;;;6.55;;
37851;SDS011;23691;52.486;4.650;2023-05-07T04:57:43;12.80;;;6.55;;
37851;SDS011;23691;52.486;4.650;2023-05-07T05:02:39;11.30;;;6.13;;
37851;SDS011;23691;52.486;4.650;2023-05-07T05:05:05;15.18;;;6.18;;
37851;SDS011;23691;52.486;4.650;2023-05-07T05:07:31;10.88;;;5.93;;
37851;SDS011;23691;52.486;4.650;2023-05-07T05:09:57;13.88;;;5.90;;
37851;SDS011;23691;52.486;4.650;2023-05-07T05:12:22;11.07;;;5.65;;
37851;SDS011;23691;52.486;4.650;2023-05-07T05:14:48;11.55;;;5.72;;
37851;SDS011;23691;52.486;4.650;2023-05-07T05:17:13;12.57;;;5.78;;
37851;SDS011;23691;52.486;4.650;2023-05-07T05:19:38;12.55;;;6.53;;
37851;SDS011;23691;52.486;4.650;2023-05-07T05:22:04;10.93;;;5.75;;
37851;SDS011;23691;52.486;4.650;2023-05-07T05:24:30;11.43;;;6.05;;
37851;SDS011;23691;52.486;4.650;2023-05-07T05:26:56;13.73;;;6.07;;
37851;SDS011;23691;52.486;4.650;2023-05-07T05:29:21;12.32;;;5.60;;
37851;SDS011;23691;52.486;4.650;2023-05-07T05:31:46;11.95;;;5.72;;
37851;SDS011;23691;52.486;4.650;2023-05-07T05:34:12;13.63;;;5.90;;
37851;SDS011;23691;52.486;4.650;2023-05-07T05:36:37;11.50;;;5.35;;
37851;SDS011;23691;52.486;4.650;2023-05-07T05:39:02;11.55;;;5.68;;
37851;SDS011;23691;52.486;4.650;2023-05-07T05:41:28;11.93;;;5.47;;
37851;SDS011;23691;52.486;4.650;2023-05-07T05:43:54;11.55;;;5.45;;
37851;SDS011;23691;52.486;4.650;2023-05-07T05:46:20;12.68;;;5.78;;
37851;SDS011;23691;52.486;4.650;2023-05-07T05:48:45;12.35;;;5.97;;
37851;SDS011;23691;52.486;4.650;2023-05-07T05:51:10;11.68;;;6.07;;
37851;SDS011;23691;52.486;4.650;2023-05-07T05:53:36;11.85;;;5.60;;
37851;SDS011;23691;52.486;4.650;2023-05-07T05:56:02;12.40;;;5.85;;
37851;SDS011;23691;52.486;4.650;2023-05-07T05:58:27;11.35;;;6.07;;
37851;SDS011;23691;52.486;4.650;2023-05-07T06:00:52;12.10;;;5.78;;
37851;SDS011;23691;52.486;4.650;2023-05-07T06:03:18;13.57;;;6.45;;
37851;SDS011;23691;52.486;4.650;2023-05-07T06:05:43;13.00;;;6.03;;
37851;SDS011;23691;52.486;4.650;2023-05-07T06:08:09;13.60;;;6.55;;
37851;SDS011;23691;52.486;4.650;2023-05-07T06:10:35;13.77;;;7.05;;
37851;SDS011;23691;52.486;4.650;2023-05-07T06:13:01;14.73;;;7.60;;
37851;SDS011;23691;52.486;4.650;2023-05-07T06:15:27;14.63;;;7.00;;
37851;SDS011;23691;52.486;4.650;2023-05-07T06:17:53;13.52;;;7.55;;
37851;SDS011;23691;52.486;4.650;2023-05-07T06:20:18;15.18;;;7.13;;
37851;SDS011;23691;52.486;4.650;2023-05-07T06:22:43;12.68;;;6.93;;
37851;SDS011;23691;52.486;4.650;2023-05-07T06:25:09;15.73;;;7.78;;
37851;SDS011;23691;52.486;4.650;2023-05-07T06:27:34;12.95;;;7.30;;
37851;SDS011;23691;52.486;4.650;2023-05-07T06:30:02;14.82;;;7.60;;
37851;SDS011;23691;52.486;4.650;2023-05-07T06:32:27;14.52;;;7.45;;
37851;SDS011;23691;52.486;4.650;2023-05-07T06:34:54;15.40;;;7.30;;
37851;SDS011;23691;52.486;4.650;2023-05-07T06:37:20;16.83;;;8.18;;
37851;SDS011;23691;52.486;4.650;2023-05-07T06:39:46;16.77;;;8.52;;
37851;SDS011;23691;52.486;4.650;2023-05-07T06:42:12;15.00;;;9.05;;
37851;SDS011;23691;52.486;4.650;2023-05-07T06:44:38;15.85;;;9.23;;
37851;SDS011;23691;52.486;4.650;2023-05-07T06:47:03;19.83;;;10.48;;
37851;SDS011;23691;52.486;4.650;2023-05-07T06:49:30;17.40;;;10.38;;
37851;SDS011;23691;52.486;4.650;2023-05-07T06:51:56;18.45;;;10.52;;
37851;SDS011;23691;52.486;4.650;2023-05-07T06:54:22;15.35;;;10.32;;
37851;SDS011;23691;52.486;4.650;2023-05-07T06:56:47;19.23;;;11.32;;
37851;SDS011;23691;52.486;4.650;2023-05-07T06:59:13;22.92;;;12.65;;
37851;SDS011;23691;52.486;4.650;2023-05-07T07:01:38;20.45;;;12.50;;
37851;SDS011;23691;52.486;4.650;2023-05-07T07:04:04;20.30;;;11.18;;
37851;SDS011;23691;52.486;4.650;2023-05-07T07:06:29;19.35;;;10.98;;
37851;SDS011;23691;52.486;4.650;2023-05-07T07:08:56;16.33;;;10.03;;
37851;SDS011;23691;52.486;4.650;2023-05-07T07:11:22;16.08;;;9.52;;
37851;SDS011;23691;52.486;4.650;2023-05-07T07:13:48;15.52;;;9.05;;
37851;SDS011;23691;52.486;4.650;2023-05-07T07:16:13;16.05;;;8.80;;
37851;SDS011;23691;52.486;4.650;2023-05-07T07:18:38;13.55;;;8.13;;
37851;SDS011;23691;52.486;4.650;2023-05-07T07:21:04;15.85;;;8.40;;
37851;SDS011;23691;52.486;4.650;2023-05-07T07:23:29;15.23;;;8.80;;
37851;SDS011;23691;52.486;4.650;2023-05-07T07:25:54;16.45;;;9.07;;
37851;SDS011;23691;52.486;4.650;2023-05-07T07:28:20;14.27;;;8.93;;
37851;SDS011;23691;52.486;4.650;2023-05-07T07:30:46;16.40;;;9.50;;
37851;SDS011;23691;52.486;4.650;2023-05-07T07:33:12;17.85;;;9.52;;
37851;SDS011;23691;52.486;4.650;2023-05-07T07:35:37;17.05;;;9.30;;
37851;SDS011;23691;52.486;4.650;2023-05-07T07:38:02;14.13;;;8.68;;
37851;SDS011;23691;52.486;4.650;2023-05-07T07:40:28;16.58;;;8.43;;
37851;SDS011;23691;52.486;4.650;2023-05-07T07:42:53;16.10;;;8.73;;
37851;SDS011;23691;52.486;4.650;2023-05-07T07:45:19;18.65;;;8.68;;
37851;SDS011;23691;52.486;4.650;2023-05-07T07:47:45;16.67;;;8.65;;
37851;SDS011;23691;52.486;4.650;2023-05-07T07:50:10;17.85;;;8.43;;
37851;SDS011;23691;52.486;4.650;2023-05-07T07:52:36;16.45;;;9.23;;
37851;SDS011;23691;52.486;4.650;2023-05-07T07:55:02;17.02;;;8.50;;
37851;SDS011;23691;52.486;4.650;2023-05-07T07:57:27;16.50;;;9.15;;
37851;SDS011;23691;52.486;4.650;2023-05-07T07:59:53;14.30;;;8.30;;
37851;SDS011;23691;52.486;4.650;2023-05-07T08:02:18;15.48;;;8.48;;
37851;SDS011;23691;52.486;4.650;2023-05-07T08:04:43;15.50;;;9.02;;
37851;SDS011;23691;52.486;4.650;2023-05-07T08:07:09;14.95;;;8.55;;
37851;SDS011;23691;52.486;4.650;2023-05-07T08:09:35;16.70;;;9.32;;
37851;SDS011;23691;52.486;4.650;2023-05-07T08:12:02;17.05;;;9.13;;
37851;SDS011;23691;52.486;4.650;2023-05-07T08:14:27;15.18;;;8.98;;
37851;SDS011;23691;52.486;4.650;2023-05-07T08:16:53;14.70;;;9.45;;
37851;SDS011;23691;52.486;4.650;2023-05-07T08:19:19;15.40;;;9.57;;
37851;SDS011;23691;52.486;4.650;2023-05-07T08:21:45;18.98;;;9.20;;
37851;SDS011;23691;52.486;4.650;2023-05-07T08:24:12;17.77;;;9.18;;
37851;SDS011;23691;52.486;4.650;2023-05-07T08:26:38;15.48;;;8.65;;
37851;SDS011;23691;52.486;4.650;2023-05-07T08:29:05;14.85;;;7.88;;
37851;SDS011;23691;52.486;4.650;2023-05-07T08:31:30;13.95;;;7.70;;
37851;SDS011;23691;52.486;4.650;2023-05-07T08:33:56;15.77;;;7.63;;
37851;SDS011;23691;52.486;4.650;2023-05-07T08:36:22;12.82;;;7.22;;
37851;SDS011;23691;52.486;4.650;2023-05-07T08:38:47;15.38;;;6.75;;
37851;SDS011;23691;52.486;4.650;2023-05-07T08:41:14;23.30;;;7.43;;
37851;SDS011;23691;52.486;4.650;2023-05-07T08:43:41;25.02;;;7.57;;
37851;SDS011;23691;52.486;4.650;2023-05-07T08:46:07;13.30;;;6.33;;
37851;SDS011;23691;52.486;4.650;2023-05-07T08:48:34;13.00;;;5.53;;
37851;SDS011;23691;52.486;4.650;2023-05-07T08:51:01;9.45;;;5.07;;
37851;SDS011;23691;52.486;4.650;2023-05-07T08:53:26;11.75;;;4.88;;
37851;SDS011;23691;52.486;4.650;2023-05-07T08:55:52;11.43;;;5.20;;
37851;SDS011;23691;52.486;4.650;2023-05-07T08:58:18;11.63;;;5.60;;
37851;SDS011;23691;52.486;4.650;2023-05-07T09:00:44;10.07;;;4.93;;
37851;SDS011;23691;52.486;4.650;2023-05-07T09:03:09;12.45;;;5.20;;
37851;SDS011;23691;52.486;4.650;2023-05-07T09:05:39;9.10;;;4.35;;
37851;SDS011;23691;52.486;4.650;2023-05-07T09:08:05;10.82;;;4.35;;
37851;SDS011;23691;52.486;4.650;2023-05-07T09:10:34;10.65;;;3.88;;
37851;SDS011;23691;52.486;4.650;2023-05-07T09:13:00;9.80;;;3.75;;
37851;SDS011;23691;52.486;4.650;2023-05-07T09:15:26;9.25;;;3.65;;
37851;SDS011;23691;52.486;4.650;2023-05-07T09:17:51;8.82;;;3.15;;
37851;SDS011;23691;52.486;4.650;2023-05-07T09:20:17;9.20;;;3.55;;
37851;SDS011;23691;52.486;4.650;2023-05-07T09:22:42;8.63;;;3.10;;
37851;SDS011;23691;52.486;4.650;2023-05-07T09:25:09;9.07;;;3.53;;
37851;SDS011;23691;52.486;4.650;2023-05-07T09:27:34;9.52;;;3.90;;
37851;SDS011;23691;52.486;4.650;2023-05-07T09:30:02;12.65;;;4.22;;
37851;SDS011;23691;52.486;4.650;2023-05-07T09:32:29;11.93;;;4.18;;
37851;SDS011;23691;52.486;4.650;2023-05-07T09:34:55;10.23;;;4.00;;
37851;SDS011;23691;52.486;4.650;2023-05-07T09:37:20;9.98;;;4.60;;
37851;SDS011;23691;52.486;4.650;2023-05-07T09:39:47;9.80;;;4.35;;
37851;SDS011;23691;52.486;4.650;2023-05-07T09:42:14;10.55;;;4.75;;
37851;SDS011;23691;52.486;4.650;2023-05-07T09:44:40;10.40;;;4.80;;
37851;SDS011;23691;52.486;4.650;2023-05-07T09:47:06;9.10;;;4.07;;
37851;SDS011;23691;52.486;4.650;2023-05-07T09:49:35;8.63;;;3.38;;
37851;SDS011;23691;52.486;4.650;2023-05-07T09:52:02;9.70;;;3.08;;
37851;SDS011;23691;52.486;4.650;2023-05-07T09:54:31;9.75;;;3.30;;
37851;SDS011;23691;52.486;4.650;2023-05-07T09:56:58;8.05;;;3.03;;
37851;SDS011;23691;52.486;4.650;2023-05-07T09:59:27;9.57;;;2.88;;
37851;SDS011;23691;52.486;4.650;2023-05-07T10:01:53;8.77;;;2.92;;
37851;SDS011;23691;52.486;4.650;2023-05-07T10:04:23;8.60;;;3.25;;
37851;SDS011;23691;52.486;4.650;2023-05-07T10:06:49;8.65;;;3.28;;
37851;SDS011;23691;52.486;4.650;2023-05-07T10:09:15;9.30;;;3.33;;
37851;SDS011;23691;52.486;4.650;2023-05-07T10:11:41;8.32;;;3.33;;
37851;SDS011;23691;52.486;4.650;2023-05-07T10:14:08;9.90;;;3.43;;
37851;SDS011;23691;52.486;4.650;2023-05-07T10:16:35;8.53;;;3.60;;
37851;SDS011;23691;52.486;4.650;2023-05-07T10:19:02;12.18;;;4.28;;
37851;SDS011;23691;52.486;4.650;2023-05-07T10:21:39;9.10;;;3.65;;
37851;SDS011;23691;52.486;4.650;2023-05-07T10:24:10;10.20;;;4.00;;
37851;SDS011;23691;52.486;4.650;2023-05-07T10:26:45;9.82;;;4.15;;
37851;SDS011;23691;52.486;4.650;2023-05-07T10:29:36;8.88;;;3.35;;
37851;SDS011;23691;52.486;4.650;2023-05-07T10:35:19;10.45;;;3.70;;
37851;SDS011;23691;52.486;4.650;2023-05-07T10:37:47;9.05;;;3.25;;
37851;SDS011;23691;52.486;4.650;2023-05-07T10:40:13;9.93;;;3.20;;
37851;SDS011;23691;52.486;4.650;2023-05-07T10:42:39;10.13;;;3.05;;
37851;SDS011;23691;52.486;4.650;2023-05-07T10:45:29;10.45;;;2.70;;
37851;SDS011;23691;52.486;4.650;2023-05-07T10:48:05;8.52;;;2.33;;
37851;SDS011;23691;52.486;4.650;2023-05-07T10:50:38;8.55;;;2.45;;
37851;SDS011;23691;52.486;4.650;2023-05-07T10:55:50;10.32;;;3.03;;
37851;SDS011;23691;52.486;4.650;2023-05-07T10:58:24;9.48;;;3.33;;
37851;SDS011;23691;52.486;4.650;2023-05-07T11:00:55;10.25;;;3.40;;
37851;SDS011;23691;52.486;4.650;2023-05-07T11:03:25;10.52;;;3.42;;
37851;SDS011;23691;52.486;4.650;2023-05-07T11:11:54;13.07;;;2.45;;
37851;SDS011;23691;52.486;4.650;2023-05-07T11:14:58;7.50;;;2.10;;
37851;SDS011;23691;52.486;4.650;2023-05-07T11:17:18;7.38;;;2.13;;
37851;SDS011;23691;52.486;4.650;2023-05-07T11:19:47;8.27;;;2.30;;
37851;SDS011;23691;52.486;4.650;2023-05-07T11:25:01;9.52;;;2.20;;
37851;SDS011;23691;52.486;4.650;2023-05-07T11:27:27;9.90;;;2.28;;
37851;SDS011;23691;52.486;4.650;2023-05-07T11:29:52;12.38;;;2.03;;
37851;SDS011;23691;52.486;4.650;2023-05-07T11:32:27;7.47;;;1.75;;
37851;SDS011;23691;52.486;4.650;2023-05-07T11:34:54;11.50;;;3.50;;
37851;SDS011;23691;52.486;4.650;2023-05-07T11:37:21;14.25;;;5.68;;
37851;SDS011;23691;52.486;4.650;2023-05-07T11:39:47;16.13;;;5.60;;
37851;SDS011;23691;52.486;4.650;2023-05-07T11:42:27;12.35;;;5.18;;
37851;SDS011;23691;52.486;4.650;2023-05-07T11:44:53;10.05;;;4.57;;
37851;SDS011;23691;52.486;4.650;2023-05-07T11:47:19;13.02;;;5.72;;
37851;SDS011;23691;52.486;4.650;2023-05-07T11:49:49;13.93;;;6.15;;
37851;SDS011;23691;52.486;4.650;2023-05-07T11:52:16;15.43;;;6.80;;
37851;SDS011;23691;52.486;4.650;2023-05-07T11:54:52;17.48;;;6.80;;
37851;SDS011;23691;52.486;4.650;2023-05-07T11:57:19;13.13;;;6.53;;
37851;SDS011;23691;52.486;4.650;2023-05-07T11:59:55;15.30;;;6.53;;
37851;SDS011;23691;52.486;4.650;2023-05-07T12:02:27;14.30;;;6.70;;
37851;SDS011;23691;52.486;4.650;2023-05-07T12:04:53;15.57;;;6.90;;
37851;SDS011;23691;52.486;4.650;2023-05-07T12:07:20;15.07;;;7.22;;
37851;SDS011;23691;52.486;4.650;2023-05-07T12:09:46;13.45;;;7.10;;
37851;SDS011;23691;52.486;4.650;2023-05-07T12:12:12;13.88;;;6.95;;
37851;SDS011;23691;52.486;4.650;2023-05-07T12:14:40;14.38;;;7.28;;
37851;SDS011;23691;52.486;4.650;2023-05-07T12:17:07;13.10;;;6.83;;
37851;SDS011;23691;52.486;4.650;2023-05-07T12:19:34;14.40;;;7.45;;
37851;SDS011;23691;52.486;4.650;2023-05-07T12:22:02;13.53;;;7.17;;
37851;SDS011;23691;52.486;4.650;2023-05-07T12:24:28;15.65;;;7.60;;
37851;SDS011;23691;52.486;4.650;2023-05-07T12:26:53;18.45;;;7.78;;
37851;SDS011;23691;52.486;4.650;2023-05-07T12:29:22;18.75;;;9.38;;
37851;SDS011;23691;52.486;4.650;2023-05-07T12:31:47;18.00;;;10.02;;
37851;SDS011;23691;52.486;4.650;2023-05-07T12:34:15;16.33;;;10.35;;
37851;SDS011;23691;52.486;4.650;2023-05-07T12:36:40;16.95;;;10.15;;
37851;SDS011;23691;52.486;4.650;2023-05-07T12:39:06;18.55;;;11.68;;
37851;SDS011;23691;52.486;4.650;2023-05-07T12:41:52;16.70;;;10.80;;
37851;SDS011;23691;52.486;4.650;2023-05-07T12:44:21;17.92;;;11.90;;
37851;SDS011;23691;52.486;4.650;2023-05-07T12:46:58;23.17;;;12.63;;
37851;SDS011;23691;52.486;4.650;2023-05-07T12:49:26;19.90;;;13.05;;
37851;SDS011;23691;52.486;4.650;2023-05-07T12:51:51;22.42;;;12.25;;
37851;SDS011;23691;52.486;4.650;2023-05-07T12:54:29;24.83;;;12.95;;
37851;SDS011;23691;52.486;4.650;2023-05-07T12:59:32;22.48;;;13.30;;
37851;SDS011;23691;52.486;4.650;2023-05-07T13:02:04;21.20;;;13.38;;
37851;SDS011;23691;52.486;4.650;2023-05-07T13:04:30;24.55;;;14.45;;
37851;SDS011;23691;52.486;4.650;2023-05-07T13:06:59;22.13;;;13.13;;
37851;SDS011;23691;52.486;4.650;2023-05-07T13:09:25;21.27;;;14.20;;
37851;SDS011;23691;52.486;4.650;2023-05-07T13:11:50;23.65;;;14.45;;
37851;SDS011;23691;52.486;4.650;2023-05-07T13:14:16;23.10;;;14.60;;
37851;SDS011;23691;52.486;4.650;2023-05-07T13:16:41;24.92;;;15.40;;
37851;SDS011;23691;52.486;4.650;2023-05-07T13:19:07;24.88;;;15.77;;
37851;SDS011;23691;52.486;4.650;2023-05-07T13:21:32;23.65;;;16.83;;
37851;SDS011;23691;52.486;4.650;2023-05-07T13:23:57;26.48;;;16.00;;
37851;SDS011;23691;52.486;4.650;2023-05-07T13:26:23;23.75;;;14.45;;
37851;SDS011;23691;52.486;4.650;2023-05-07T13:28:49;24.80;;;14.13;;
37851;SDS011;23691;52.486;4.650;2023-05-07T13:31:15;24.50;;;14.25;;
37851;SDS011;23691;52.486;4.650;2023-05-07T13:33:44;23.05;;;14.50;;
37851;SDS011;23691;52.486;4.650;2023-05-07T13:36:09;24.00;;;15.40;;
37851;SDS011;23691;52.486;4.650;2023-05-07T13:38:35;30.38;;;15.15;;
37851;SDS011;23691;52.486;4.650;2023-05-07T13:41:00;23.23;;;14.75;;
37851;SDS011;23691;52.486;4.650;2023-05-07T13:43:25;26.13;;;15.65;;
37851;SDS011;23691;52.486;4.650;2023-05-07T13:45:51;25.13;;;16.30;;
37851;SDS011;23691;52.486;4.650;2023-05-07T13:48:16;23.63;;;15.13;;
37851;SDS011;23691;52.486;4.650;2023-05-07T13:50:45;29.48;;;16.80;;
37851;SDS011;23691;52.486;4.650;2023-05-07T13:53:10;23.02;;;14.73;;
37851;SDS011;23691;52.486;4.650;2023-05-07T13:55:36;22.45;;;13.80;;
37851;SDS011;23691;52.486;4.650;2023-05-07T13:58:02;20.40;;;12.65;;
37851;SDS011;23691;52.486;4.650;2023-05-07T14:00:29;17.92;;;11.68;;
37851;SDS011;23691;52.486;4.650;2023-05-07T14:02:55;19.50;;;12.25;;
37851;SDS011;23691;52.486;4.650;2023-05-07T14:05:21;18.13;;;11.93;;
37851;SDS011;23691;52.486;4.650;2023-05-07T14:07:50;19.77;;;12.25;;
37851;SDS011;23691;52.486;4.650;2023-05-07T14:10:17;18.08;;;11.45;;
37851;SDS011;23691;52.486;4.650;2023-05-07T14:12:43;19.50;;;12.07;;
37851;SDS011;23691;52.486;4.650;2023-05-07T14:15:09;16.92;;;11.68;;
37851;SDS011;23691;52.486;4.650;2023-05-07T14:17:35;19.17;;;12.85;;
37851;SDS011;23691;52.486;4.650;2023-05-07T14:20:01;19.00;;;12.77;;
37851;SDS011;23691;52.486;4.650;2023-05-07T14:22:26;19.30;;;11.85;;
37851;SDS011;23691;52.486;4.650;2023-05-07T14:24:51;20.85;;;12.32;;
37851;SDS011;23691;52.486;4.650;2023-05-07T14:27:17;19.38;;;11.60;;
37851;SDS011;23691;52.486;4.650;2023-05-07T14:29:42;18.58;;;10.93;;
37851;SDS011;23691;52.486;4.650;2023-05-07T14:32:10;17.90;;;11.65;;
37851;SDS011;23691;52.486;4.650;2023-05-07T14:34:36;19.52;;;11.57;;
37851;SDS011;23691;52.486;4.650;2023-05-07T14:37:01;19.17;;;11.90;;
37851;SDS011;23691;52.486;4.650;2023-05-07T14:39:26;19.42;;;11.40;;
37851;SDS011;23691;52.486;4.650;2023-05-07T14:41:52;18.35;;;11.85;;
37851;SDS011;23691;52.486;4.650;2023-05-07T14:44:19;18.92;;;11.48;;
37851;SDS011;23691;52.486;4.650;2023-05-07T14:46:45;18.08;;;10.75;;
37851;SDS011;23691;52.486;4.650;2023-05-07T14:49:10;18.00;;;11.18;;
37851;SDS011;23691;52.486;4.650;2023-05-07T14:51:45;20.88;;;12.68;;
37851;SDS011;23691;52.486;4.650;2023-05-07T14:54:11;19.50;;;12.05;;